Mega Smeralda — ICIU — position and weather

sailwx.info

Track history (hours):
 
Tides and Currents Weather Stations Pressure Air Temp Water Temp Dewpoint Dewpoint Depression Visibility Wind Speed Wind Dir Waves Ship Positions

Mega Smeralda

Last reported at 2017-Jun-28 17:30 UTC. Time now 2017-Jun-28 17:37 UTC.
Position N 43°07' E 005°56'.

Length 171 m; draft 6.4 m.

Type: Passenger vessel. MMSI: 247228600.

Date/timePositionNaut miles runAvg speedWind from/ knotsBaromVisibWave heightAir tempDewpointWater temp
2017-Jun-28 17:30N 43°07' E 005°56'0 0.0
2017-Jun-28 17:00N 43°07' E 005°56'0 0.0
2017-Jun-28 16:30N 43°07' E 005°56'0 0.0
2017-Jun-28 16:00N 43°07' E 005°56'0 0.0
2017-Jun-28 15:30N 43°07' E 005°56'0 0.0
2017-Jun-28 15:00N 43°07' E 005°56'0 0.0
2017-Jun-28 14:30N 43°07' E 005°56'0 0.0
2017-Jun-28 13:30N 43°07' E 005°56'0 0.0
2017-Jun-28 13:00N 43°07' E 005°56'0 0.0
2017-Jun-28 12:30N 43°07' E 005°56'0 0.0
2017-Jun-28 12:00N 43°07' E 005°56'0 0.0
2017-Jun-28 11:30N 43°07' E 005°56'0 0.0
2017-Jun-28 11:00N 43°07' E 005°56'0 0.0
2017-Jun-28 10:30N 43°07' E 005°56'0 0.0
2017-Jun-28 10:00N 43°07' E 005°56'0 0.0
2017-Jun-28 09:30N 43°07' E 005°56'0 0.0
2017-Jun-28 09:00N 43°07' E 005°56'0 0.0
2017-Jun-28 08:30N 43°07' E 005°56'0 0.0
2017-Jun-28 08:00N 43°07' E 005°56'0 0.0
2017-Jun-28 07:30N 43°07' E 005°56'0 0.0
2017-Jun-28 07:00N 43°07' E 005°56'0 0.0
2017-Jun-28 06:30N 43°07' E 005°56'0 0.0
2017-Jun-28 06:00N 43°07' E 005°56'0 0.0
2017-Jun-28 05:30N 43°07' E 005°56'1 1.8
2017-Jun-28 04:59N 43°06' E 005°55'3713.8
2017-Jun-28 02:16N 42°57' E 006°45'717.3
2017-Jun-28 01:53N 42°58' E 006°54'717.6
2017-Jun-28 01:29N 42°58' E 007°03'817.7
2017-Jun-28 01:00N 42°59' E 007°15'917.6
2017-Jun-28 00:30N 42°59' E 007°27'917.3
2017-Jun-28 00:00N 43°00' E 007°39'816.8
2017-Jun-27 23:30N 43°01' E 007°50'816.8
2017-Jun-27 23:00N 43°01' E 008°02'816.9
2017-Jun-27 22:30N 43°02' E 008°13'917.8
2017-Jun-27 22:00N 43°03' E 008°25'917.7
2017-Jun-27 21:30N 43°03' E 008°37'917.8
2017-Jun-27 21:00N 43°03' E 008°50'917.9
2017-Jun-27 20:30N 43°04' E 009°02'917.7
2017-Jun-27 20:00N 43°04' E 009°14'917.4
2017-Jun-27 19:30N 43°05' E 009°26'816.9
2017-Jun-27 19:00N 42°58' E 009°33'918.1
2017-Jun-27 18:30N 42°49' E 009°35'916.3
2017-Jun-27 17:59N 42°42' E 009°28'1 0.3
2017-Jun-27 15:57N 42°42' E 009°27'512.1
2017-Jun-27 15:31N 42°45' E 009°33'918.3
2017-Jun-27 15:00N 42°51' E 009°43'1817.8
2017-Jun-27 14:01N 43°04' E 009°59'1019.2
2017-Jun-27 13:31N 43°13' E 010°04'918.9
2017-Jun-27 13:00N 43°22' E 010°08'918.5
2017-Jun-27 12:30N 43°30' E 010°12'5 9.5
2017-Jun-27 12:00N 43°33' E 010°18'0 0.1
2017-Jun-27 11:25N 43°33' E 010°18'0 0.0
2017-Jun-27 11:00N 43°33' E 010°18'0 0.4
2017-Jun-27 10:30N 43°33' E 010°18'5 9.1
2017-Jun-27 10:00N 43°29' E 010°14'1019.8
2017-Jun-27 09:31N 43°20' E 010°09'1019.9
2017-Jun-27 09:00N 43°11' E 010°04'1019.8
2017-Jun-27 08:29N 43°01' E 009°60'1019.3
2017-Jun-27 07:59N 42°54' E 009°50'28 6.3
2017-Jun-27 03:31N 43°03' E 009°14'119.8
2017-Jun-27 03:30N 43°03' E 009°13'1019.8
2017-Jun-27 03:00N 43°02' E 009°00'1019.8
2017-Jun-27 02:30N 43°00' E 008°46'919.4
2017-Jun-27 02:00N 42°59' E 008°34'1019.2
2017-Jun-27 01:30N 42°57' E 008°21'1018.9
2017-Jun-27 01:00N 42°55' E 008°08'1118.8
2017-Jun-27 00:24N 42°54' E 007°52'719.1
2017-Jun-27 00:00N 42°53' E 007°42'1019.3
2017-Jun-26 23:30N 42°52' E 007°29'1319.6
2017-Jun-26 22:50N 42°50' E 007°11'619.7
2017-Jun-26 22:30N 42°50' E 007°03'816.3
2017-Jun-26 22:00N 42°49' E 006°52'917.0
2017-Jun-26 21:30N 42°48' E 006°40'918.8
2017-Jun-26 21:00N 42°48' E 006°27'918.2
2017-Jun-26 20:30N 42°50' E 006°15'1219.2
2017-Jun-26 19:52N 42°59' E 006°04'719.2
2017-Jun-26 19:30N 43°04' E 005°58'3 5.6
2017-Jun-26 18:58N 43°07' E 005°56'0 0.0
2017-Jun-26 18:28N 43°07' E 005°56'0 0.0
2017-Jun-26 17:58N 43°07' E 005°56'0 0.0
2017-Jun-26 17:28N 43°07' E 005°56'0 0.0
2017-Jun-26 16:58N 43°07' E 005°56'0 0.0
2017-Jun-26 16:28N 43°07' E 005°56'0 0.0
2017-Jun-26 15:58N 43°07' E 005°56'0 0.0
2017-Jun-26 15:28N 43°07' E 005°56'0 0.0
2017-Jun-26 14:58N 43°07' E 005°56'0 0.0
2017-Jun-26 13:58N 43°07' E 005°56'0 0.0
2017-Jun-26 13:28N 43°07' E 005°56'0 0.0
2017-Jun-26 12:55N 43°07' E 005°56'0 0.0
2017-Jun-26 12:28N 43°07' E 005°56'0 0.0
2017-Jun-26 11:58N 43°07' E 005°56'0 0.0
2017-Jun-26 11:28N 43°07' E 005°56'0 0.0
2017-Jun-26 10:58N 43°07' E 005°56'0 0.0
2017-Jun-26 10:28N 43°07' E 005°56'0 0.0
2017-Jun-26 09:58N 43°07' E 005°56'0 0.0
2017-Jun-26 09:28N 43°07' E 005°56'0 0.0
2017-Jun-26 08:58N 43°07' E 005°56'0 0.0
2017-Jun-26 08:28N 43°07' E 005°56'0 0.0
2017-Jun-26 07:58N 43°07' E 005°56'0 0.0
2017-Jun-26 07:28N 43°07' E 005°56'0 0.0
2017-Jun-26 06:58N 43°07' E 005°56'0 0.0
2017-Jun-26 06:28N 43°07' E 005°56'0 0.0
2017-Jun-26 05:58N 43°07' E 005°56'0 0.0
2017-Jun-26 05:28N 43°07' E 005°56'1 2.2
2017-Jun-26 05:01N 43°06' E 005°55'5714.9
2017-Jun-26 01:13N 42°59' E 007°12'715.6
2017-Jun-26 00:46N 42°59' E 007°21'518.7
2017-Jun-26 00:30N 42°59' E 007°28'1120.0
2017-Jun-25 23:55N 43°00' E 007°44'4318.6
2017-Jun-25 21:35N 43°04' E 008°43'316.0
2017-Jun-25 21:26N 43°04' E 008°47'1016.7
2017-Jun-25 20:51N 43°04' E 008°60'616.8
2017-Jun-25 20:30N 43°04' E 009°08'1216.6
2017-Jun-25 19:49N 43°05' E 009°24'515.9
2017-Jun-25 19:30N 43°03' E 009°30'21 5.9
2017-Jun-25 15:58N 42°42' E 009°27'714.0
2017-Jun-25 15:29N 42°46' E 009°35'1017.7
2017-Jun-25 14:53N 42°52' E 009°46'717.8
2017-Jun-25 14:30N 42°57' E 009°53'1817.7
2017-Jun-25 13:31N 43°12' E 010°04'1019.7
2017-Jun-25 13:01N 43°22' E 010°09'1019.4
2017-Jun-25 12:31N 43°31' E 010°13'4 8.3
2017-Jun-25 12:00N 43°33' E 010°18'0 0.0
2017-Jun-25 11:30N 43°33' E 010°18'0 0.0
2017-Jun-25 11:00N 43°33' E 010°18'0 0.0
2017-Jun-25 10:30N 43°33' E 010°18'0 0.0
2017-Jun-25 09:58N 43°33' E 010°18'0 0.0
2017-Jun-25 09:28N 43°33' E 010°18'0 0.0
2017-Jun-25 08:58N 43°33' E 010°18'0 0.0
2017-Jun-25 08:28N 43°33' E 010°18'0 0.0
2017-Jun-25 07:58N 43°33' E 010°18'0 0.0
2017-Jun-25 07:28N 43°33' E 010°18'0 0.0
2017-Jun-25 06:58N 43°33' E 010°18'0 0.0
2017-Jun-25 06:25N 43°33' E 010°18'0 0.0
2017-Jun-25 05:58N 43°33' E 010°18'0 0.0
2017-Jun-25 05:28N 43°33' E 010°18'0 0.0
2017-Jun-25 04:58N 43°33' E 010°18'2 3.6
2017-Jun-25 04:30N 43°32' E 010°16'2 4.4
2017-Jun-25 03:59N 43°30' E 010°14'816.7
2017-Jun-25 03:30N 43°22' E 010°12'917.6
2017-Jun-25 03:00N 43°14' E 010°09'5817.5
2017-Jun-24 23:41N 42°17' E 009°54'617.5
2017-Jun-24 23:21N 42°11' E 009°53'617.7
2017-Jun-24 23:00N 42°05' E 009°52'816.3
2017-Jun-24 22:29N 41°56' E 009°51'918.2
2017-Jun-24 21:58N 41°47' E 009°50'1219.4
2017-Jun-24 21:20N 41°35' E 009°48'37 3.0
2017-Jun-24 09:14N 40°59' E 009°40'519.2
2017-Jun-24 09:00N 41°03' E 009°40'20415.2
2017-Jun-23 19:34N 43°04' E 005°58'116.3
2017-Jun-23 19:30N 43°05' E 005°57'2 4.1
2017-Jun-23 18:59N 43°07' E 005°56'0 0.0
2017-Jun-23 18:29N 43°07' E 005°56'0 0.0
2017-Jun-23 17:59N 43°07' E 005°56'0 0.0
2017-Jun-23 17:13N 43°07' E 005°56'1 4.3
2017-Jun-23 17:00N 43°06' E 005°55'2216.7
2017-Jun-23 15:40N 42°52' E 006°18'1119.6
2017-Jun-23 15:07N 42°46' E 006°31'219.7
2017-Jun-23 15:00N 42°45' E 006°33'2119.6
2017-Jun-23 13:57N 42°34' E 006°57'1119.5
2017-Jun-23 13:22N 42°28' E 007°10'2919.5
2017-Jun-23 11:53N 42°13' E 007°43'819.6
2017-Jun-23 11:30N 42°09' E 007°52'1019.6
2017-Jun-23 10:59N 42°03' E 008°03'1219.9
2017-Jun-23 10:23N 41°56' E 008°17'25 2.8
2017-Jun-23 01:36N 42°10' E 007°49'216.2
2017-Jun-23 01:30N 42°11' E 007°47'1716.2
2017-Jun-23 00:29N 42°19' E 007°28'816.0
2017-Jun-23 00:00N 42°24' E 007°20'816.0
2017-Jun-22 23:30N 42°28' E 007°10'816.0
2017-Jun-22 23:00N 42°32' E 007°01'816.0
2017-Jun-22 22:30N 42°36' E 006°52'816.3
2017-Jun-22 22:00N 42°41' E 006°42'916.1
2017-Jun-22 21:27N 42°45' E 006°32'3115.7
2017-Jun-22 19:29N 43°04' E 005°58'4 7.4
2017-Jun-22 19:00N 43°07' E 005°56'0 0.1
2017-Jun-22 18:27N 43°07' E 005°56'0 0.0
2017-Jun-22 17:57N 43°07' E 005°56'0 0.0
2017-Jun-22 17:30N 43°07' E 005°56'0 0.0
2017-Jun-22 17:00N 43°07' E 005°56'0 0.0
2017-Jun-22 16:27N 43°07' E 005°56'0 0.0
2017-Jun-22 16:00N 43°07' E 005°56'0 0.0
2017-Jun-22 15:30N 43°07' E 005°56'0 0.0
2017-Jun-22 15:00N 43°07' E 005°56'0 0.0
2017-Jun-22 14:30N 43°07' E 005°56'0 0.0
2017-Jun-22 13:30N 43°07' E 005°56'0 0.0
2017-Jun-22 13:00N 43°07' E 005°56'0 0.0
2017-Jun-22 12:30N 43°07' E 005°56'0 0.0
2017-Jun-22 11:45N 43°07' E 005°56'0 0.0
2017-Jun-22 11:27N 43°07' E 005°56'0 0.0
2017-Jun-22 10:51N 43°07' E 005°56'0 0.0
2017-Jun-22 10:30N 43°07' E 005°56'0 0.0
2017-Jun-22 09:57N 43°07' E 005°56'0 0.0
2017-Jun-22 09:30N 43°07' E 005°56'0 0.0
2017-Jun-22 09:00N 43°07' E 005°56'0 0.0
2017-Jun-22 08:21N 43°07' E 005°56'0 0.0
2017-Jun-22 08:00N 43°07' E 005°56'0 0.0
2017-Jun-22 07:30N 43°07' E 005°56'0 0.0
2017-Jun-22 07:00N 43°07' E 005°56'0 0.0
2017-Jun-22 06:30N 43°07' E 005°56'0 0.0
2017-Jun-22 06:00N 43°07' E 005°56'0 0.0
2017-Jun-22 05:30N 43°07' E 005°56'1 1.3
2017-Jun-22 05:01N 43°06' E 005°55'3512.8
2017-Jun-22 02:17N 42°45' E 006°32'2413.5
2017-Jun-22 00:30N 42°32' E 006°60'713.5
2017-Jun-22 00:00N 42°28' E 007°07'713.5
2017-Jun-21 23:29N 42°24' E 007°15'713.7
2017-Jun-21 23:00N 42°21' E 007°23'813.7
2017-Jun-21 22:25N 42°17' E 007°32'613.7
2017-Jun-21 22:01N 42°14' E 007°39'713.8
2017-Jun-21 21:30N 42°10' E 007°47'713.8
2017-Jun-21 21:00N 42°07' E 007°55'713.9
2017-Jun-21 20:31N 42°03' E 008°03'713.8
2017-Jun-21 20:00N 41°59' E 008°11'813.8
2017-Jun-21 19:27N 41°55' E 008°19'49 2.6
2017-Jun-21 00:21N 42°22' E 007°24'816.2
2017-Jun-20 23:51N 42°25' E 007°15'2116.2
2017-Jun-20 22:32N 42°37' E 006°50'116.5
2017-Jun-20 22:27N 42°38' E 006°49'816.7
2017-Jun-20 21:58N 42°42' E 006°40'817.1
2017-Jun-20 21:30N 42°46' E 006°31'2615.9
2017-Jun-20 19:52N 43°01' E 006°01'615.5
2017-Jun-20 19:30N 43°05' E 005°57'2 3.1
2017-Jun-20 18:56N 43°07' E 005°56'0 0.0
2017-Jun-20 18:29N 43°07' E 005°56'0 0.0
2017-Jun-20 17:59N 43°07' E 005°56'0 0.0
2017-Jun-20 17:29N 43°07' E 005°56'0 0.0
2017-Jun-20 16:59N 43°07' E 005°56'0 0.0
2017-Jun-20 16:29N 43°07' E 005°56'0 0.0
2017-Jun-20 15:59N 43°07' E 005°56'0 0.0
2017-Jun-20 15:26N 43°07' E 005°56'0 0.0
2017-Jun-20 14:56N 43°07' E 005°56'0 0.0
2017-Jun-20 13:53N 43°07' E 005°56'0 0.0
2017-Jun-20 13:26N 43°07' E 005°56'0 0.0
2017-Jun-20 11:47N 43°07' E 005°56'0 0.0
2017-Jun-20 11:23N 43°07' E 005°56'0 0.0
2017-Jun-20 10:14N 43°07' E 005°56'0 0.0
2017-Jun-20 09:56N 43°07' E 005°56'0 0.0
2017-Jun-20 09:20N 43°07' E 005°56'0 0.0
2017-Jun-20 08:56N 43°07' E 005°56'0 0.0
2017-Jun-20 08:26N 43°07' E 005°56'0 0.0
2017-Jun-20 07:56N 43°07' E 005°56'0 0.0
2017-Jun-20 07:26N 43°07' E 005°56'0 0.0
2017-Jun-20 06:56N 43°07' E 005°56'0 0.0
2017-Jun-20 06:29N 43°07' E 005°56'0 0.0
2017-Jun-20 05:59N 43°07' E 005°56'0 0.0
2017-Jun-20 05:29N 43°07' E 005°56'0 0.4
2017-Jun-20 05:00N 43°07' E 005°56'811.5
2017-Jun-20 04:16N 43°00' E 006°03'617.5
2017-Jun-20 03:57N 42°57' E 006°09'817.5
2017-Jun-20 03:30N 42°56' E 006°20'917.1
2017-Jun-20 03:00N 42°58' E 006°31'917.2
2017-Jun-20 02:30N 42°57' E 006°43'917.1
2017-Jun-20 02:00N 42°58' E 006°54'817.0
2017-Jun-20 01:30N 42°59' E 007°06'816.8
2017-Jun-20 01:00N 42°60' E 007°17'816.6
2017-Jun-20 00:31N 43°00' E 007°29'816.2
2017-Jun-20 00:00N 43°01' E 007°40'816.8
2017-Jun-19 23:30N 43°01' E 007°51'916.9
2017-Jun-19 23:00N 43°01' E 008°03'917.3
2017-Jun-19 22:30N 43°02' E 008°15'917.4
2017-Jun-19 22:01N 43°02' E 008°26'917.3
2017-Jun-19 21:30N 43°03' E 008°38'917.1
2017-Jun-19 21:01N 43°03' E 008°50'917.2
2017-Jun-19 20:31N 43°04' E 009°02'817.0
2017-Jun-19 20:01N 43°04' E 009°13'917.1
2017-Jun-19 19:31N 43°04' E 009°25'816.5
2017-Jun-19 19:01N 42°59' E 009°33'917.4
2017-Jun-19 18:31N 42°50' E 009°35'8 0.6
2017-Jun-19 04:09N 42°58' E 009°33'317.5
2017-Jun-19 04:00N 43°01' E 009°32'816.4
2017-Jun-19 03:30N 43°04' E 009°22'917.7
2017-Jun-19 03:00N 43°04' E 009°10'918.0
2017-Jun-19 02:30N 43°04' E 008°57'918.0
2017-Jun-19 01:59N 43°02' E 008°45'918.1
2017-Jun-19 01:30N 43°01' E 008°33'918.2
2017-Jun-19 01:00N 43°01' E 008°20'918.0
2017-Jun-19 00:30N 43°01' E 008°08'918.1
2017-Jun-19 00:00N 42°60' E 007°56'8518.6
2017-Jun-18 19:25N 43°03' E 005°59'410.2
2017-Jun-18 19:00N 43°07' E 005°56'0 0.4
2017-Jun-18 18:30N 43°07' E 005°56'0 0.0
2017-Jun-18 18:00N 43°07' E 005°56'0 0.0
2017-Jun-18 17:30N 43°07' E 005°56'  
Track history (hours):
 
Tides and Currents Weather Stations Pressure Air Temp Water Temp Dewpoint Dewpoint Depression Visibility Wind Speed Wind Dir Waves Ship Positions

Mega Smeralda

Last reported at 2017-Jun-28 17:30 UTC. Time now 2017-Jun-28 17:37 UTC.
Position N 43°07' E 005°56'.

Length 171 m; draft 6.4 m.

Type: Passenger vessel. MMSI: 247228600.

Date/timePositionNaut miles runAvg speedWind from/ knotsBaromVisibWave heightAir tempDewpointWater temp
2017-Jun-28 17:30N 43°07' E 005°56'0 0.0
2017-Jun-28 17:00N 43°07' E 005°56'0 0.0
2017-Jun-28 16:30N 43°07' E 005°56'0 0.0
2017-Jun-28 16:00N 43°07' E 005°56'0 0.0
2017-Jun-28 15:30N 43°07' E 005°56'0 0.0
2017-Jun-28 15:00N 43°07' E 005°56'0 0.0
2017-Jun-28 14:30N 43°07' E 005°56'0 0.0
2017-Jun-28 13:30N 43°07' E 005°56'0 0.0
2017-Jun-28 13:00N 43°07' E 005°56'0 0.0
2017-Jun-28 12:30N 43°07' E 005°56'0 0.0
2017-Jun-28 12:00N 43°07' E 005°56'0 0.0
2017-Jun-28 11:30N 43°07' E 005°56'0 0.0
2017-Jun-28 11:00N 43°07' E 005°56'0 0.0
2017-Jun-28 10:30N 43°07' E 005°56'0 0.0
2017-Jun-28 10:00N 43°07' E 005°56'0 0.0
2017-Jun-28 09:30N 43°07' E 005°56'0 0.0
2017-Jun-28 09:00N 43°07' E 005°56'0 0.0
2017-Jun-28 08:30N 43°07' E 005°56'0 0.0
2017-Jun-28 08:00N 43°07' E 005°56'0 0.0
2017-Jun-28 07:30N 43°07' E 005°56'0 0.0
2017-Jun-28 07:00N 43°07' E 005°56'0 0.0
2017-Jun-28 06:30N 43°07' E 005°56'0 0.0
2017-Jun-28 06:00N 43°07' E 005°56'0 0.0
2017-Jun-28 05:30N 43°07' E 005°56'1 1.8
2017-Jun-28 04:59N 43°06' E 005°55'3713.8
2017-Jun-28 02:16N 42°57' E 006°45'717.3
2017-Jun-28 01:53N 42°58' E 006°54'717.6
2017-Jun-28 01:29N 42°58' E 007°03'817.7
2017-Jun-28 01:00N 42°59' E 007°15'917.6
2017-Jun-28 00:30N 42°59' E 007°27'917.3
2017-Jun-28 00:00N 43°00' E 007°39'816.8
2017-Jun-27 23:30N 43°01' E 007°50'816.8
2017-Jun-27 23:00N 43°01' E 008°02'816.9
2017-Jun-27 22:30N 43°02' E 008°13'917.8
2017-Jun-27 22:00N 43°03' E 008°25'917.7
2017-Jun-27 21:30N 43°03' E 008°37'917.8
2017-Jun-27 21:00N 43°03' E 008°50'917.9
2017-Jun-27 20:30N 43°04' E 009°02'917.7
2017-Jun-27 20:00N 43°04' E 009°14'917.4
2017-Jun-27 19:30N 43°05' E 009°26'816.9
2017-Jun-27 19:00N 42°58' E 009°33'918.1
2017-Jun-27 18:30N 42°49' E 009°35'916.3
2017-Jun-27 17:59N 42°42' E 009°28'1 0.3
2017-Jun-27 15:57N 42°42' E 009°27'512.1
2017-Jun-27 15:31N 42°45' E 009°33'918.3
2017-Jun-27 15:00N 42°51' E 009°43'1817.8
2017-Jun-27 14:01N 43°04' E 009°59'1019.2
2017-Jun-27 13:31N 43°13' E 010°04'918.9
2017-Jun-27 13:00N 43°22' E 010°08'918.5
2017-Jun-27 12:30N 43°30' E 010°12'5 9.5
2017-Jun-27 12:00N 43°33' E 010°18'0 0.1
2017-Jun-27 11:25N 43°33' E 010°18'0 0.0
2017-Jun-27 11:00N 43°33' E 010°18'0 0.4
2017-Jun-27 10:30N 43°33' E 010°18'5 9.1
2017-Jun-27 10:00N 43°29' E 010°14'1019.8
2017-Jun-27 09:31N 43°20' E 010°09'1019.9
2017-Jun-27 09:00N 43°11' E 010°04'1019.8
2017-Jun-27 08:29N 43°01' E 009°60'1019.3
2017-Jun-27 07:59N 42°54' E 009°50'28 6.3
2017-Jun-27 03:31N 43°03' E 009°14'119.8
2017-Jun-27 03:30N 43°03' E 009°13'1019.8
2017-Jun-27 03:00N 43°02' E 009°00'1019.8
2017-Jun-27 02:30N 43°00' E 008°46'919.4
2017-Jun-27 02:00N 42°59' E 008°34'1019.2
2017-Jun-27 01:30N 42°57' E 008°21'1018.9
2017-Jun-27 01:00N 42°55' E 008°08'1118.8
2017-Jun-27 00:24N 42°54' E 007°52'719.1
2017-Jun-27 00:00N 42°53' E 007°42'1019.3
2017-Jun-26 23:30N 42°52' E 007°29'1319.6
2017-Jun-26 22:50N 42°50' E 007°11'619.7
2017-Jun-26 22:30N 42°50' E 007°03'816.3
2017-Jun-26 22:00N 42°49' E 006°52'917.0
2017-Jun-26 21:30N 42°48' E 006°40'918.8
2017-Jun-26 21:00N 42°48' E 006°27'918.2
2017-Jun-26 20:30N 42°50' E 006°15'1219.2
2017-Jun-26 19:52N 42°59' E 006°04'719.2
2017-Jun-26 19:30N 43°04' E 005°58'3 5.6
2017-Jun-26 18:58N 43°07' E 005°56'0 0.0
2017-Jun-26 18:28N 43°07' E 005°56'0 0.0
2017-Jun-26 17:58N 43°07' E 005°56'0 0.0
2017-Jun-26 17:28N 43°07' E 005°56'0 0.0
2017-Jun-26 16:58N 43°07' E 005°56'0 0.0
2017-Jun-26 16:28N 43°07' E 005°56'0 0.0
2017-Jun-26 15:58N 43°07' E 005°56'0 0.0
2017-Jun-26 15:28N 43°07' E 005°56'0 0.0
2017-Jun-26 14:58N 43°07' E 005°56'0 0.0
2017-Jun-26 13:58N 43°07' E 005°56'0 0.0
2017-Jun-26 13:28N 43°07' E 005°56'0 0.0
2017-Jun-26 12:55N 43°07' E 005°56'0 0.0
2017-Jun-26 12:28N 43°07' E 005°56'0 0.0
2017-Jun-26 11:58N 43°07' E 005°56'0 0.0
2017-Jun-26 11:28N 43°07' E 005°56'0 0.0
2017-Jun-26 10:58N 43°07' E 005°56'0 0.0
2017-Jun-26 10:28N 43°07' E 005°56'0 0.0
2017-Jun-26 09:58N 43°07' E 005°56'0 0.0
2017-Jun-26 09:28N 43°07' E 005°56'0 0.0
2017-Jun-26 08:58N 43°07' E 005°56'0 0.0
2017-Jun-26 08:28N 43°07' E 005°56'0 0.0
2017-Jun-26 07:58N 43°07' E 005°56'0 0.0
2017-Jun-26 07:28N 43°07' E 005°56'0 0.0
2017-Jun-26 06:58N 43°07' E 005°56'0 0.0
2017-Jun-26 06:28N 43°07' E 005°56'0 0.0
2017-Jun-26 05:58N 43°07' E 005°56'0 0.0
2017-Jun-26 05:28N 43°07' E 005°56'1 2.2
2017-Jun-26 05:01N 43°06' E 005°55'5714.9
2017-Jun-26 01:13N 42°59' E 007°12'715.6
2017-Jun-26 00:46N 42°59' E 007°21'518.7
2017-Jun-26 00:30N 42°59' E 007°28'1120.0
2017-Jun-25 23:55N 43°00' E 007°44'4318.6
2017-Jun-25 21:35N 43°04' E 008°43'316.0
2017-Jun-25 21:26N 43°04' E 008°47'1016.7
2017-Jun-25 20:51N 43°04' E 008°60'616.8
2017-Jun-25 20:30N 43°04' E 009°08'1216.6
2017-Jun-25 19:49N 43°05' E 009°24'515.9
2017-Jun-25 19:30N 43°03' E 009°30'21 5.9
2017-Jun-25 15:58N 42°42' E 009°27'714.0
2017-Jun-25 15:29N 42°46' E 009°35'1017.7
2017-Jun-25 14:53N 42°52' E 009°46'717.8
2017-Jun-25 14:30N 42°57' E 009°53'1817.7
2017-Jun-25 13:31N 43°12' E 010°04'1019.7
2017-Jun-25 13:01N 43°22' E 010°09'1019.4
2017-Jun-25 12:31N 43°31' E 010°13'4 8.3
2017-Jun-25 12:00N 43°33' E 010°18'0 0.0
2017-Jun-25 11:30N 43°33' E 010°18'0 0.0
2017-Jun-25 11:00N 43°33' E 010°18'0 0.0
2017-Jun-25 10:30N 43°33' E 010°18'0 0.0
2017-Jun-25 09:58N 43°33' E 010°18'0 0.0
2017-Jun-25 09:28N 43°33' E 010°18'0 0.0
2017-Jun-25 08:58N 43°33' E 010°18'0 0.0
2017-Jun-25 08:28N 43°33' E 010°18'0 0.0
2017-Jun-25 07:58N 43°33' E 010°18'0 0.0
2017-Jun-25 07:28N 43°33' E 010°18'0 0.0
2017-Jun-25 06:58N 43°33' E 010°18'0 0.0
2017-Jun-25 06:25N 43°33' E 010°18'0 0.0
2017-Jun-25 05:58N 43°33' E 010°18'0 0.0
2017-Jun-25 05:28N 43°33' E 010°18'0 0.0
2017-Jun-25 04:58N 43°33' E 010°18'2 3.6
2017-Jun-25 04:30N 43°32' E 010°16'2 4.4
2017-Jun-25 03:59N 43°30' E 010°14'816.7
2017-Jun-25 03:30N 43°22' E 010°12'917.6
2017-Jun-25 03:00N 43°14' E 010°09'5817.5
2017-Jun-24 23:41N 42°17' E 009°54'617.5
2017-Jun-24 23:21N 42°11' E 009°53'617.7
2017-Jun-24 23:00N 42°05' E 009°52'816.3
2017-Jun-24 22:29N 41°56' E 009°51'918.2
2017-Jun-24 21:58N 41°47' E 009°50'1219.4
2017-Jun-24 21:20N 41°35' E 009°48'37 3.0
2017-Jun-24 09:14N 40°59' E 009°40'519.2
2017-Jun-24 09:00N 41°03' E 009°40'20415.2
2017-Jun-23 19:34N 43°04' E 005°58'116.3
2017-Jun-23 19:30N 43°05' E 005°57'2 4.1
2017-Jun-23 18:59N 43°07' E 005°56'0 0.0
2017-Jun-23 18:29N 43°07' E 005°56'0 0.0
2017-Jun-23 17:59N 43°07' E 005°56'0 0.0
2017-Jun-23 17:13N 43°07' E 005°56'1 4.3
2017-Jun-23 17:00N 43°06' E 005°55'2216.7
2017-Jun-23 15:40N 42°52' E 006°18'1119.6
2017-Jun-23 15:07N 42°46' E 006°31'219.7
2017-Jun-23 15:00N 42°45' E 006°33'2119.6
2017-Jun-23 13:57N 42°34' E 006°57'1119.5
2017-Jun-23 13:22N 42°28' E 007°10'2919.5
2017-Jun-23 11:53N 42°13' E 007°43'819.6
2017-Jun-23 11:30N 42°09' E 007°52'1019.6
2017-Jun-23 10:59N 42°03' E 008°03'1219.9
2017-Jun-23 10:23N 41°56' E 008°17'25 2.8
2017-Jun-23 01:36N 42°10' E 007°49'216.2
2017-Jun-23 01:30N 42°11' E 007°47'1716.2
2017-Jun-23 00:29N 42°19' E 007°28'816.0
2017-Jun-23 00:00N 42°24' E 007°20'816.0
2017-Jun-22 23:30N 42°28' E 007°10'816.0
2017-Jun-22 23:00N 42°32' E 007°01'816.0
2017-Jun-22 22:30N 42°36' E 006°52'816.3
2017-Jun-22 22:00N 42°41' E 006°42'916.1
2017-Jun-22 21:27N 42°45' E 006°32'3115.7
2017-Jun-22 19:29N 43°04' E 005°58'4 7.4
2017-Jun-22 19:00N 43°07' E 005°56'0 0.1
2017-Jun-22 18:27N 43°07' E 005°56'0 0.0
2017-Jun-22 17:57N 43°07' E 005°56'0 0.0
2017-Jun-22 17:30N 43°07' E 005°56'0 0.0
2017-Jun-22 17:00N 43°07' E 005°56'0 0.0
2017-Jun-22 16:27N 43°07' E 005°56'0 0.0
2017-Jun-22 16:00N 43°07' E 005°56'0 0.0
2017-Jun-22 15:30N 43°07' E 005°56'0 0.0
2017-Jun-22 15:00N 43°07' E 005°56'0 0.0
2017-Jun-22 14:30N 43°07' E 005°56'0 0.0
2017-Jun-22 13:30N 43°07' E 005°56'0 0.0
2017-Jun-22 13:00N 43°07' E 005°56'0 0.0
2017-Jun-22 12:30N 43°07' E 005°56'0 0.0
2017-Jun-22 11:45N 43°07' E 005°56'0 0.0
2017-Jun-22 11:27N 43°07' E 005°56'0 0.0
2017-Jun-22 10:51N 43°07' E 005°56'0 0.0
2017-Jun-22 10:30N 43°07' E 005°56'0 0.0
2017-Jun-22 09:57N 43°07' E 005°56'0 0.0
2017-Jun-22 09:30N 43°07' E 005°56'0 0.0
2017-Jun-22 09:00N 43°07' E 005°56'0 0.0
2017-Jun-22 08:21N 43°07' E 005°56'0 0.0
2017-Jun-22 08:00N 43°07' E 005°56'0 0.0
2017-Jun-22 07:30N 43°07' E 005°56'0 0.0
2017-Jun-22 07:00N 43°07' E 005°56'0 0.0
2017-Jun-22 06:30N 43°07' E 005°56'0 0.0
2017-Jun-22 06:00N 43°07' E 005°56'0 0.0
2017-Jun-22 05:30N 43°07' E 005°56'1 1.3
2017-Jun-22 05:01N 43°06' E 005°55'3512.8
2017-Jun-22 02:17N 42°45' E 006°32'2413.5
2017-Jun-22 00:30N 42°32' E 006°60'713.5
2017-Jun-22 00:00N 42°28' E 007°07'713.5
2017-Jun-21 23:29N 42°24' E 007°15'713.7
2017-Jun-21 23:00N 42°21' E 007°23'813.7
2017-Jun-21 22:25N 42°17' E 007°32'613.7
2017-Jun-21 22:01N 42°14' E 007°39'713.8
2017-Jun-21 21:30N 42°10' E 007°47'713.8
2017-Jun-21 21:00N 42°07' E 007°55'713.9
2017-Jun-21 20:31N 42°03' E 008°03'713.8
2017-Jun-21 20:00N 41°59' E 008°11'813.8
2017-Jun-21 19:27N 41°55' E 008°19'49 2.6
2017-Jun-21 00:21N 42°22' E 007°24'816.2
2017-Jun-20 23:51N 42°25' E 007°15'2116.2
2017-Jun-20 22:32N 42°37' E 006°50'116.5
2017-Jun-20 22:27N 42°38' E 006°49'816.7
2017-Jun-20 21:58N 42°42' E 006°40'817.1
2017-Jun-20 21:30N 42°46' E 006°31'2615.9
2017-Jun-20 19:52N 43°01' E 006°01'615.5
2017-Jun-20 19:30N 43°05' E 005°57'2 3.1
2017-Jun-20 18:56N 43°07' E 005°56'0 0.0
2017-Jun-20 18:29N 43°07' E 005°56'0 0.0
2017-Jun-20 17:59N 43°07' E 005°56'0 0.0
2017-Jun-20 17:29N 43°07' E 005°56'0 0.0
2017-Jun-20 16:59N 43°07' E 005°56'0 0.0
2017-Jun-20 16:29N 43°07' E 005°56'0 0.0
2017-Jun-20 15:59N 43°07' E 005°56'0 0.0
2017-Jun-20 15:26N 43°07' E 005°56'0 0.0
2017-Jun-20 14:56N 43°07' E 005°56'0 0.0
2017-Jun-20 13:53N 43°07' E 005°56'0 0.0
2017-Jun-20 13:26N 43°07' E 005°56'0 0.0
2017-Jun-20 11:47N 43°07' E 005°56'0 0.0
2017-Jun-20 11:23N 43°07' E 005°56'0 0.0
2017-Jun-20 10:14N 43°07' E 005°56'0 0.0
2017-Jun-20 09:56N 43°07' E 005°56'0 0.0
2017-Jun-20 09:20N 43°07' E 005°56'0 0.0
2017-Jun-20 08:56N 43°07' E 005°56'0 0.0
2017-Jun-20 08:26N 43°07' E 005°56'0 0.0
2017-Jun-20 07:56N 43°07' E 005°56'0 0.0
2017-Jun-20 07:26N 43°07' E 005°56'0 0.0
2017-Jun-20 06:56N 43°07' E 005°56'0 0.0
2017-Jun-20 06:29N 43°07' E 005°56'0 0.0
2017-Jun-20 05:59N 43°07' E 005°56'0 0.0
2017-Jun-20 05:29N 43°07' E 005°56'0 0.4
2017-Jun-20 05:00N 43°07' E 005°56'811.5
2017-Jun-20 04:16N 43°00' E 006°03'617.5
2017-Jun-20 03:57N 42°57' E 006°09'817.5
2017-Jun-20 03:30N 42°56' E 006°20'917.1
2017-Jun-20 03:00N 42°58' E 006°31'917.2
2017-Jun-20 02:30N 42°57' E 006°43'917.1
2017-Jun-20 02:00N 42°58' E 006°54'817.0
2017-Jun-20 01:30N 42°59' E 007°06'816.8
2017-Jun-20 01:00N 42°60' E 007°17'816.6
2017-Jun-20 00:31N 43°00' E 007°29'816.2
2017-Jun-20 00:00N 43°01' E 007°40'816.8
2017-Jun-19 23:30N 43°01' E 007°51'916.9
2017-Jun-19 23:00N 43°01' E 008°03'917.3
2017-Jun-19 22:30N 43°02' E 008°15'917.4
2017-Jun-19 22:01N 43°02' E 008°26'917.3
2017-Jun-19 21:30N 43°03' E 008°38'917.1
2017-Jun-19 21:01N 43°03' E 008°50'917.2
2017-Jun-19 20:31N 43°04' E 009°02'817.0
2017-Jun-19 20:01N 43°04' E 009°13'917.1
2017-Jun-19 19:31N 43°04' E 009°25'816.5
2017-Jun-19 19:01N 42°59' E 009°33'917.4
2017-Jun-19 18:31N 42°50' E 009°35'8 0.6
2017-Jun-19 04:09N 42°58' E 009°33'317.5
2017-Jun-19 04:00N 43°01' E 009°32'816.4
2017-Jun-19 03:30N 43°04' E 009°22'917.7
2017-Jun-19 03:00N 43°04' E 009°10'918.0
2017-Jun-19 02:30N 43°04' E 008°57'918.0
2017-Jun-19 01:59N 43°02' E 008°45'918.1
2017-Jun-19 01:30N 43°01' E 008°33'918.2
2017-Jun-19 01:00N 43°01' E 008°20'918.0
2017-Jun-19 00:30N 43°01' E 008°08'918.1
2017-Jun-19 00:00N 42°60' E 007°56'8518.6
2017-Jun-18 19:25N 43°03' E 005°59'410.2
2017-Jun-18 19:00N 43°07' E 005°56'0 0.4
2017-Jun-18 18:30N 43°07' E 005°56'0 0.0
2017-Jun-18 18:00N 43°07' E 005°56'0 0.0
2017-Jun-18 17:30N 43°07' E 005°56'  

Dump ship's entire track history